createdAt,value
2018-05-14T00:01:33.294Z,37.70
2018-05-14T00:04:08.000Z,42.17
2018-05-14T00:06:42.854Z,34.50
2018-05-14T00:09:16.889Z,42.83
2018-05-14T00:11:51.076Z,35.93
2018-05-14T00:14:26.007Z,36.73
2018-05-14T00:17:00.838Z,47.03
2018-05-14T00:19:34.869Z,44.97
2018-05-14T00:22:11.485Z,41.37
2018-05-14T00:24:46.888Z,48.80
2018-05-14T00:27:22.068Z,46.73
2018-05-14T00:29:55.967Z,47.40
2018-05-14T00:32:29.980Z,50.53
2018-05-14T00:35:04.768Z,43.03
2018-05-14T00:37:38.756Z,50.20
2018-05-14T00:40:12.979Z,44.53
2018-05-14T00:42:48.694Z,42.83
2018-05-14T00:45:22.974Z,44.03
2018-05-14T00:47:57.271Z,47.73
2018-05-14T00:50:32.407Z,50.07
2018-05-14T00:53:06.723Z,48.20
2018-05-14T00:55:41.211Z,47.07
2018-05-14T00:58:16.150Z,57.60
2018-05-14T01:00:50.137Z,48.63
2018-05-14T01:03:24.513Z,45.57
2018-05-14T01:05:58.715Z,44.73
2018-05-14T01:08:33.237Z,43.67
2018-05-14T01:11:08.557Z,46.53
2018-05-14T01:13:45.287Z,46.57
2018-05-14T01:16:20.281Z,41.67
2018-05-14T01:19:14.976Z,46.20
2018-05-14T01:21:49.078Z,45.47
2018-05-14T01:24:23.396Z,49.17
2018-05-14T01:26:58.168Z,48.80
2018-05-14T01:29:32.550Z,47.03
2018-05-14T01:32:06.704Z,48.67
2018-05-14T01:34:40.874Z,41.77
2018-05-14T01:37:15.529Z,45.60
2018-05-14T01:39:49.819Z,47.27
2018-05-14T01:42:24.275Z,48.57
2018-05-14T01:44:58.314Z,47.40
2018-05-14T01:47:33.212Z,49.53
2018-05-14T01:50:07.259Z,47.93
2018-05-14T01:52:41.703Z,51.07
2018-05-14T01:55:15.654Z,47.53
2018-05-14T01:57:50.895Z,51.57
2018-05-14T02:00:27.215Z,50.20
2018-05-14T02:03:01.371Z,49.00
2018-05-14T02:05:36.000Z,55.97
2018-05-14T02:08:10.302Z,48.63
2018-05-14T02:10:48.223Z,53.27
2018-05-14T02:13:22.709Z,50.00
2018-05-14T02:15:57.719Z,48.97
2018-05-14T02:18:31.852Z,47.43
2018-05-14T02:21:06.213Z,47.30
2018-05-14T02:23:41.020Z,46.30
2018-05-14T02:26:15.561Z,44.00
2018-05-14T02:28:50.600Z,51.47
2018-05-14T02:31:24.683Z,51.07
2018-05-14T02:33:58.833Z,48.73
2018-05-14T02:36:33.554Z,50.80
2018-05-14T02:39:08.188Z,54.57
2018-05-14T02:41:42.500Z,46.10
2018-05-14T02:44:18.547Z,54.23
2018-05-14T02:46:53.125Z,48.57
2018-05-14T02:49:27.314Z,58.50
2018-05-14T02:52:04.747Z,51.90
2018-05-14T02:54:43.975Z,51.97
2018-05-14T02:57:18.509Z,51.97
2018-05-14T02:59:54.411Z,59.60
2018-05-14T03:02:30.775Z,52.73
2018-05-14T03:05:34.476Z,59.80
2018-05-14T03:08:08.452Z,59.27
2018-05-14T03:10:46.069Z,61.63
2018-05-14T03:16:48.783Z,58.33
2018-05-14T03:19:26.791Z,63.07
2018-05-14T03:22:03.021Z,68.40
2018-05-14T03:24:38.286Z,64.80
2018-05-14T03:27:12.911Z,63.93
2018-05-14T03:29:47.398Z,68.63
2018-05-14T03:32:21.691Z,69.40
2018-05-14T03:34:57.004Z,68.93
2018-05-14T03:37:31.722Z,65.80
2018-05-14T03:40:06.041Z,70.93
2018-05-14T03:42:40.344Z,75.00
2018-05-14T03:45:14.455Z,73.20
2018-05-14T03:47:48.771Z,75.80
2018-05-14T03:50:24.317Z,73.17
2018-05-14T03:52:58.839Z,73.33
2018-05-14T03:55:32.972Z,70.40
2018-05-14T03:58:08.927Z,67.20
2018-05-14T04:00:55.461Z,74.17
2018-05-14T04:03:41.936Z,77.53
2018-05-14T04:06:28.438Z,74.00
2018-05-14T04:09:02.733Z,73.97
2018-05-14T04:11:38.237Z,79.67
2018-05-14T04:14:12.384Z,76.43
2018-05-14T04:16:46.330Z,81.47
2018-05-14T04:19:21.005Z,81.43
2018-05-14T04:21:55.725Z,81.27
2018-05-14T04:24:30.034Z,81.30
2018-05-14T04:27:04.153Z,85.80
2018-05-14T04:29:38.221Z,87.37
2018-05-14T04:32:13.145Z,86.03
2018-05-14T04:34:47.983Z,86.70
2018-05-14T04:37:22.278Z,85.90
2018-05-14T04:39:56.164Z,69.47
2018-05-14T04:42:30.557Z,85.07
2018-05-14T04:45:05.151Z,84.43
2018-05-14T04:47:39.211Z,90.20
2018-05-14T04:50:13.993Z,84.57
2018-05-14T04:52:49.050Z,96.40
2018-05-14T04:55:23.598Z,79.80
2018-05-14T04:57:57.765Z,85.07
2018-05-14T05:00:32.822Z,76.90
2018-05-14T05:03:11.008Z,83.23
2018-05-14T05:05:45.147Z,81.27
2018-05-14T05:11:26.919Z,73.93
2018-05-14T05:14:00.946Z,59.30
2018-05-14T05:16:35.787Z,62.63
2018-05-14T05:19:11.566Z,69.27
2018-05-14T05:21:50.969Z,68.97
2018-05-14T05:24:40.369Z,67.53
2018-05-14T05:27:15.402Z,62.00
2018-05-14T05:29:49.473Z,59.77
2018-05-14T05:32:23.653Z,67.40
2018-05-14T05:34:58.978Z,66.67
2018-05-14T05:37:34.427Z,60.20
2018-05-14T05:40:08.590Z,69.43
2018-05-14T05:42:44.068Z,67.23
2018-05-14T05:45:18.921Z,62.73
2018-05-14T05:47:52.807Z,67.30
2018-05-14T05:50:26.985Z,58.77
2018-05-14T05:53:01.302Z,71.03
2018-05-14T05:55:36.421Z,63.17
2018-05-14T05:58:12.395Z,62.10
2018-05-14T06:00:46.301Z,70.07
2018-05-14T06:03:27.801Z,64.60
2018-05-14T06:06:02.182Z,42.13
2018-05-14T06:08:36.297Z,44.93
2018-05-14T06:11:10.148Z,46.80
2018-05-14T06:13:44.263Z,48.00
2018-05-14T06:16:18.307Z,56.00
2018-05-14T06:18:53.030Z,53.30
2018-05-14T06:21:27.110Z,51.07
2018-05-14T06:24:03.089Z,49.37
2018-05-14T06:26:37.518Z,45.67
2018-05-14T06:29:12.308Z,47.50
2018-05-14T06:31:47.593Z,42.47
2018-05-14T06:34:22.886Z,43.00
2018-05-14T06:36:57.045Z,38.93
2018-05-14T06:39:31.503Z,48.33
2018-05-14T06:42:06.597Z,41.40
2018-05-14T06:44:44.710Z,40.60
2018-05-14T06:47:23.126Z,38.90
2018-05-14T06:49:57.406Z,39.10
2018-05-14T06:52:32.376Z,35.70
2018-05-14T06:55:24.640Z,33.73
2018-05-14T06:57:59.639Z,35.27
2018-05-14T07:00:41.297Z,37.07
2018-05-14T07:03:15.834Z,32.30
2018-05-14T07:05:50.892Z,38.73
2018-05-14T07:08:26.581Z,32.87
2018-05-14T07:11:02.497Z,26.50
2018-05-14T07:13:36.519Z,28.27
2018-05-14T07:16:11.991Z,26.23
2018-05-14T07:18:47.383Z,28.77
2018-05-14T07:21:21.649Z,28.07
2018-05-14T07:23:57.633Z,30.10
2018-05-14T07:26:31.869Z,28.57
2018-05-14T07:29:05.976Z,22.67
2018-05-14T07:31:34.388Z,23.67
2018-05-14T07:34:03.859Z,22.73
2018-05-14T07:36:32.372Z,22.33
2018-05-14T07:39:01.435Z,18.97
2018-05-14T07:41:30.539Z,18.50
2018-05-14T07:43:58.898Z,13.47
2018-05-14T07:46:27.211Z,15.23
2018-05-14T07:48:56.200Z,15.17
2018-05-14T07:51:25.264Z,16.53
2018-05-14T07:53:53.783Z,18.50
2018-05-14T07:56:22.793Z,17.70
2018-05-14T07:58:53.191Z,18.57
2018-05-14T08:01:22.202Z,21.90
2018-05-14T08:03:51.583Z,19.87
2018-05-14T08:06:20.207Z,21.67
2018-05-14T08:08:48.984Z,22.50
2018-05-14T08:21:20.450Z,20.70
2018-05-14T08:38:49.237Z,21.07
2018-05-14T08:41:22.366Z,18.27
2018-05-14T08:43:50.598Z,19.07
2018-05-14T08:46:18.881Z,23.77
2018-05-14T08:48:47.974Z,21.60
2018-05-14T08:51:16.986Z,21.67
2018-05-14T08:53:45.345Z,20.97
2018-05-14T08:56:19.618Z,21.53
2018-05-14T08:58:48.128Z,10.33
2018-05-14T09:01:20.272Z,17.00
2018-05-14T09:03:48.688Z,22.30
2018-05-14T09:06:17.014Z,22.43
2018-05-14T09:08:45.522Z,22.23
2018-05-14T09:11:13.724Z,24.80
2018-05-14T09:13:42.844Z,21.40
2018-05-14T09:16:11.106Z,22.40
2018-05-14T09:18:40.110Z,21.50
2018-05-14T09:21:08.909Z,20.23
2018-05-14T09:23:37.285Z,21.57
2018-05-14T09:26:06.031Z,21.33
2018-05-14T09:28:35.069Z,22.27
2018-05-14T09:31:03.578Z,24.03
2018-05-14T09:33:31.810Z,23.00
2018-05-14T09:36:01.487Z,22.73
2018-05-14T09:38:29.750Z,22.60
2018-05-14T09:40:58.802Z,23.33
2018-05-14T09:43:27.070Z,24.10
2018-05-14T09:45:55.377Z,24.33
2018-05-14T09:48:23.663Z,22.53
2018-05-14T09:50:51.931Z,21.83
2018-05-14T09:55:55.349Z,26.40
2018-05-14T09:58:24.345Z,27.00
2018-05-14T10:00:53.356Z,25.53
2018-05-14T10:03:21.558Z,25.63
2018-05-14T10:05:49.910Z,29.27
2018-05-14T10:08:18.236Z,16.93
2018-05-14T10:10:46.433Z,25.63
2018-05-14T10:13:15.464Z,25.07
2018-05-14T10:15:43.759Z,24.40
2018-05-14T10:18:12.052Z,21.77
2018-05-14T10:20:40.471Z,24.37
2018-05-14T10:23:09.408Z,24.73
2018-05-14T10:25:37.624Z,20.77
2018-05-14T10:28:06.595Z,25.03
2018-05-14T10:30:34.817Z,20.67
2018-05-14T10:33:03.028Z,19.47
2018-05-14T10:35:31.280Z,22.73
2018-05-14T10:37:59.475Z,23.27
2018-05-14T10:40:27.657Z,21.97
2018-05-14T10:42:56.587Z,28.40
2018-05-14T10:45:25.250Z,22.20
2018-05-14T10:47:53.461Z,22.20
2018-05-14T10:50:22.820Z,20.00
2018-05-14T10:52:51.105Z,21.20
2018-05-14T10:55:20.106Z,19.30
2018-05-14T10:57:49.060Z,20.60
2018-05-14T11:00:17.705Z,16.30
2018-05-14T11:02:46.647Z,16.57
2018-05-14T11:05:14.836Z,19.90
2018-05-14T11:07:43.817Z,16.97
2018-05-14T11:10:12.094Z,19.80
2018-05-14T11:12:40.271Z,19.97
2018-05-14T11:15:09.272Z,18.90
2018-05-14T11:17:38.251Z,15.53
2018-05-14T11:20:06.447Z,16.37
2018-05-14T11:22:35.407Z,16.57
2018-05-14T11:25:03.683Z,16.03
2018-05-14T11:27:31.899Z,17.97
2018-05-14T11:30:00.893Z,17.63
2018-05-14T11:32:29.070Z,15.43
2018-05-14T11:34:57.267Z,17.37
2018-05-14T11:37:25.524Z,18.03
2018-05-14T11:39:53.689Z,20.67
2018-05-14T11:42:21.905Z,16.87
2018-05-14T11:44:50.147Z,17.57
2018-05-14T11:47:18.382Z,16.30
2018-05-14T11:49:47.381Z,15.37
2018-05-14T11:52:15.619Z,21.87
2018-05-14T11:54:43.819Z,14.80
2018-05-14T11:57:12.119Z,19.03
2018-05-14T11:59:41.051Z,17.33
2018-05-14T12:02:09.255Z,21.67
2018-05-14T12:04:38.281Z,19.33
2018-05-14T12:07:06.486Z,16.33
2018-05-14T12:09:34.788Z,14.40
2018-05-14T12:12:03.053Z,20.77
2018-05-14T12:14:31.294Z,17.23
2018-05-14T12:16:59.527Z,16.47
2018-05-14T12:19:27.883Z,18.90
2018-05-14T12:21:56.116Z,15.50
2018-05-14T12:24:24.383Z,19.23
2018-05-14T12:26:52.631Z,16.83
2018-05-14T12:29:21.589Z,22.43
2018-05-14T12:31:49.817Z,17.57
2018-05-14T12:34:18.060Z,16.80
2018-05-14T12:36:47.060Z,18.50
2018-05-14T12:39:16.076Z,20.63
2018-05-14T12:41:44.299Z,18.17
2018-05-14T12:44:12.483Z,18.70
2018-05-14T12:46:41.014Z,14.77
2018-05-14T12:49:09.207Z,15.97
2018-05-14T12:51:37.426Z,17.90
2018-05-14T12:54:05.621Z,15.77
2018-05-14T12:56:33.825Z,22.03
2018-05-14T12:59:02.060Z,16.60
2018-05-14T13:01:30.255Z,21.73
2018-05-14T13:03:58.441Z,19.80
2018-05-14T13:06:26.632Z,17.73
2018-05-14T13:08:54.834Z,17.90
2018-05-14T13:11:23.637Z,25.30
2018-05-14T13:13:52.624Z,17.53
2018-05-14T13:16:21.599Z,15.77
2018-05-14T13:18:49.856Z,18.07
2018-05-14T13:21:18.093Z,19.90
2018-05-14T13:23:46.324Z,18.70
2018-05-14T13:26:15.428Z,15.30
2018-05-14T13:28:43.611Z,18.40
2018-05-14T13:31:11.886Z,16.60
2018-05-14T13:33:40.082Z,24.90
2018-05-14T13:38:42.714Z,16.67
2018-05-14T13:41:10.970Z,20.77
2018-05-14T13:43:39.186Z,20.33
2018-05-14T13:46:08.175Z,18.10
2018-05-14T13:48:37.219Z,19.10
2018-05-14T13:51:05.591Z,22.43
2018-05-14T13:53:34.390Z,15.90
2018-05-14T13:56:02.669Z,13.90
2018-05-14T13:58:30.872Z,20.87
2018-05-14T14:00:59.892Z,19.07
2018-05-14T14:03:28.097Z,16.13
2018-05-14T14:05:56.344Z,20.30
2018-05-14T14:08:24.519Z,18.70
2018-05-14T14:10:52.693Z,23.67
2018-05-14T14:13:20.929Z,21.50
2018-05-14T14:15:50.416Z,25.43
2018-05-14T14:18:18.731Z,23.90
2018-05-14T14:20:47.696Z,20.00
2018-05-14T14:23:16.023Z,22.30
2018-05-14T14:25:44.119Z,21.23
2018-05-14T14:28:12.309Z,15.70
2018-05-14T14:30:41.307Z,15.23
2018-05-14T14:33:09.599Z,17.53
2018-05-14T14:35:37.851Z,19.13
2018-05-14T14:38:06.272Z,23.30
2018-05-14T14:40:34.467Z,25.30
2018-05-14T14:43:02.762Z,25.77
2018-05-14T14:45:31.427Z,21.37
2018-05-14T14:47:59.645Z,21.90
2018-05-14T14:50:27.958Z,21.43
2018-05-14T14:52:56.202Z,21.80
2018-05-14T14:55:25.159Z,20.70
2018-05-14T14:57:53.388Z,18.30
2018-05-14T15:00:21.631Z,21.90
2018-05-14T15:02:49.821Z,20.63
2018-05-14T15:05:19.256Z,23.03
2018-05-14T15:07:48.296Z,22.37
2018-05-14T15:10:17.333Z,25.57
2018-05-14T15:12:45.461Z,24.13
2018-05-14T15:15:14.458Z,22.53
2018-05-14T15:17:43.430Z,22.07
2018-05-14T15:20:11.673Z,23.27
2018-05-14T15:22:40.665Z,19.70
2018-05-14T15:25:08.897Z,26.13
2018-05-14T15:27:37.901Z,24.37
2018-05-14T15:30:06.142Z,21.80
2018-05-14T15:32:35.177Z,24.73
2018-05-14T15:37:38.009Z,23.93
2018-05-14T15:40:06.183Z,24.13
2018-05-14T15:42:34.419Z,24.80
2018-05-14T15:45:02.806Z,21.10
2018-05-14T15:47:31.149Z,25.37
2018-05-14T15:49:59.513Z,29.00
2018-05-14T15:52:27.679Z,22.63
2018-05-14T15:54:55.954Z,23.13
2018-05-14T15:57:24.765Z,24.23
2018-05-14T15:59:53.027Z,22.77
2018-05-14T16:02:22.044Z,24.33
2018-05-14T16:04:51.017Z,21.03
2018-05-14T16:07:19.362Z,23.67
2018-05-14T16:09:47.657Z,21.50
2018-05-14T16:12:15.855Z,27.10
2018-05-14T16:14:44.184Z,26.30
2018-05-14T16:17:12.478Z,21.00
2018-05-14T16:19:40.748Z,22.87
2018-05-14T16:22:09.049Z,23.97
2018-05-14T16:24:37.295Z,25.70
2018-05-14T16:27:05.549Z,25.47
2018-05-14T16:29:33.841Z,33.47
2018-05-14T16:32:02.924Z,29.27
2018-05-14T16:34:31.230Z,23.33
2018-05-14T16:37:00.263Z,23.90
2018-05-14T16:39:28.618Z,17.60
2018-05-14T16:41:57.683Z,20.97
2018-05-14T16:44:26.012Z,26.93
2018-05-14T16:46:54.344Z,26.83
2018-05-14T16:49:23.400Z,27.83
2018-05-14T16:51:52.488Z,22.73
2018-05-14T16:54:20.740Z,29.80
2018-05-14T16:56:49.893Z,24.83
2018-05-14T16:59:18.335Z,24.67
2018-05-14T17:01:46.605Z,20.70
2018-05-14T17:04:15.260Z,24.10
2018-05-14T17:06:44.388Z,27.17
2018-05-14T17:09:12.941Z,25.13
2018-05-14T17:11:41.300Z,27.10
2018-05-14T17:14:21.569Z,35.43
2018-05-14T17:17:07.786Z,25.17
2018-05-14T17:19:36.428Z,23.23
2018-05-14T17:22:21.953Z,24.50
2018-05-14T17:24:53.475Z,36.40
2018-05-14T17:27:22.631Z,22.93
2018-05-14T17:29:51.158Z,18.47
2018-05-14T17:32:20.456Z,22.50
2018-05-14T17:34:53.576Z,23.77
2018-05-14T17:37:22.411Z,26.27
2018-05-14T17:39:50.918Z,21.97
2018-05-14T17:42:27.876Z,24.23
2018-05-14T17:45:33.435Z,23.97
2018-05-14T17:48:03.688Z,25.03
2018-05-14T17:50:32.113Z,24.87
2018-05-14T17:53:01.073Z,21.77
2018-05-14T17:55:40.345Z,24.83
2018-05-14T17:58:09.709Z,23.73
2018-05-14T18:00:40.296Z,23.90
2018-05-14T18:03:10.909Z,27.07
2018-05-14T18:05:39.515Z,28.17
2018-05-14T18:08:08.060Z,25.23
2018-05-14T18:10:50.205Z,22.93
2018-05-14T18:13:19.664Z,22.40
2018-05-14T18:15:49.029Z,27.47
2018-05-14T18:18:17.435Z,31.77
2018-05-14T18:20:45.913Z,22.67
2018-05-14T18:23:23.883Z,24.87
2018-05-14T18:29:14.985Z,24.17
2018-05-14T18:31:49.544Z,27.97
2018-05-14T18:34:17.940Z,24.10
2018-05-14T18:37:00.449Z,26.80
2018-05-14T18:39:30.108Z,25.70
2018-05-14T18:42:12.658Z,23.07
2018-05-14T18:44:50.754Z,26.97
2018-05-14T18:47:21.255Z,30.97
2018-05-14T18:49:59.010Z,25.47
2018-05-14T18:52:30.750Z,21.63
2018-05-14T18:57:53.372Z,24.20
2018-05-14T19:00:27.674Z,28.07
2018-05-14T19:02:56.948Z,25.70
2018-05-14T19:38:05.469Z,13.93
2018-05-14T19:40:40.317Z,15.63
2018-05-14T19:43:09.363Z,11.27
2018-05-14T19:45:37.602Z,17.37
2018-05-14T19:48:05.834Z,19.00
2018-05-14T19:50:34.930Z,16.80
2018-05-14T19:53:03.176Z,18.73
2018-05-14T19:55:31.506Z,15.13
2018-05-14T19:57:59.795Z,13.13
2018-05-14T20:00:28.001Z,16.17
2018-05-14T20:02:56.403Z,13.47
2018-05-14T20:05:24.713Z,16.03
2018-05-14T20:07:53.713Z,14.30
2018-05-14T20:10:22.706Z,14.80
2018-05-14T20:12:51.053Z,14.57
2018-05-14T20:15:20.000Z,13.23
2018-05-14T20:17:48.194Z,16.53
2018-05-14T20:20:17.192Z,14.97
2018-05-14T20:22:46.144Z,13.40
2018-05-14T20:25:14.424Z,13.50
2018-05-14T20:27:42.611Z,14.20
2018-05-14T20:30:10.802Z,14.87
2018-05-14T20:32:39.770Z,13.43
2018-05-14T20:35:07.963Z,14.80
2018-05-14T20:37:36.912Z,10.23
2018-05-14T20:40:05.104Z,14.57
2018-05-14T20:42:33.309Z,15.30
2018-05-14T20:45:01.493Z,13.93
2018-05-14T20:47:29.854Z,14.00
2018-05-14T20:49:58.962Z,9.57
2018-05-14T20:52:27.150Z,13.90
2018-05-14T20:54:55.364Z,11.87
2018-05-14T20:57:23.567Z,13.33
2018-05-14T20:59:52.695Z,11.70
2018-05-14T21:02:20.890Z,11.23
2018-05-14T21:04:49.856Z,11.20
2018-05-14T21:07:18.057Z,21.90
2018-05-14T21:09:46.261Z,15.07
2018-05-14T21:12:14.485Z,14.10
2018-05-14T21:14:42.874Z,14.77
2018-05-14T21:17:11.081Z,13.10
2018-05-14T21:19:39.269Z,14.23
2018-05-14T21:22:08.227Z,16.07
2018-05-14T21:24:36.426Z,15.60
2018-05-14T21:27:05.392Z,14.23
2018-05-14T21:29:33.619Z,13.77
2018-05-14T21:32:01.931Z,20.10
2018-05-14T21:34:30.243Z,18.93
2018-05-14T21:36:58.468Z,14.13
2018-05-14T21:39:26.767Z,12.03
2018-05-14T21:41:55.018Z,15.73
2018-05-14T21:44:23.505Z,22.27
2018-05-14T21:46:51.712Z,15.03
2018-05-14T21:49:20.760Z,15.20
2018-05-14T21:51:49.199Z,21.93
2018-05-14T21:54:17.466Z,20.30
2018-05-14T21:56:45.834Z,20.40
2018-05-14T21:59:14.227Z,20.03
2018-05-14T22:01:43.435Z,19.93
2018-05-14T22:04:11.823Z,17.87
2018-05-14T22:06:41.107Z,18.23
2018-05-14T22:09:10.314Z,22.17
2018-05-14T22:11:38.589Z,16.53
2018-05-14T22:14:06.941Z,16.03
2018-05-14T22:16:35.240Z,16.93
2018-05-14T22:19:04.437Z,17.87
2018-05-14T22:21:32.742Z,13.80
2018-05-14T22:25:05.690Z,22.13
2018-05-14T22:27:35.002Z,25.07
2018-05-14T22:30:03.604Z,22.10
2018-05-14T22:32:32.167Z,26.17
2018-05-14T22:35:01.099Z,22.80
2018-05-14T22:37:29.816Z,23.87
2018-05-14T22:39:59.584Z,22.47
2018-05-14T22:42:28.064Z,26.30
2018-05-14T22:45:00.028Z,29.23
2018-05-14T22:47:29.226Z,25.47
2018-05-14T22:50:04.510Z,24.10
2018-05-14T22:52:40.797Z,26.37
2018-05-14T22:55:10.993Z,23.87
2018-05-14T22:57:40.972Z,19.87
2018-05-14T23:00:09.899Z,21.60
2018-05-14T23:02:39.315Z,24.97
2018-05-14T23:05:09.585Z,19.40
2018-05-14T23:07:39.089Z,19.80
2018-05-14T23:10:08.335Z,27.87
2018-05-14T23:12:38.379Z,24.70
2018-05-14T23:15:06.963Z,23.67
2018-05-14T23:17:35.418Z,25.47
2018-05-14T23:20:05.126Z,23.47
2018-05-14T23:22:46.845Z,26.27
2018-05-14T23:25:16.382Z,26.67
2018-05-14T23:27:45.176Z,26.03
2018-05-14T23:30:15.123Z,24.97
2018-05-14T23:32:43.737Z,23.23
2018-05-14T23:35:13.176Z,24.70
2018-05-14T23:37:42.780Z,26.73
2018-05-14T23:40:11.981Z,28.67
2018-05-14T23:42:41.469Z,27.20
2018-05-14T23:45:19.573Z,31.10
2018-05-14T23:48:24.342Z,29.77
2018-05-14T23:50:58.211Z,31.53
2018-05-14T23:53:32.295Z,29.40
2018-05-14T23:56:07.007Z,35.60
2018-05-14T23:58:40.958Z,33.33
